sensor_id;sensor_type;location;lat;lon;timestamp;temperature;humidity
71128;SHT30;59249;59.736;30.568;2023-01-10T00:02:14;-8.08;70.31
71128;SHT30;59249;59.736;30.568;2023-01-10T00:04:42;-8.10;70.30
71128;SHT30;59249;59.736;30.568;2023-01-10T00:07:11;-7.98;70.58
71128;SHT30;59249;59.736;30.568;2023-01-10T00:09:40;-7.93;70.53
71128;SHT30;59249;59.736;30.568;2023-01-10T00:12:10;-7.97;70.47
71128;SHT30;59249;59.736;30.568;2023-01-10T00:14:56;-7.95;70.53
71128;SHT30;59249;59.736;30.568;2023-01-10T00:17:24;-7.95;70.51
71128;SHT30;59249;59.736;30.568;2023-01-10T00:19:53;-7.94;70.73
71128;SHT30;59249;59.736;30.568;2023-01-10T00:22:22;-7.93;70.70
71128;SHT30;59249;59.736;30.568;2023-01-10T00:24:51;-7.95;70.85
71128;SHT30;59249;59.736;30.568;2023-01-10T00:27:22;-8.03;70.82
71128;SHT30;59249;59.736;30.568;2023-01-10T00:29:51;-7.91;71.01
71128;SHT30;59249;59.736;30.568;2023-01-10T00:32:21;-7.90;70.92
71128;SHT30;59249;59.736;30.568;2023-01-10T00:34:49;-7.92;71.08
71128;SHT30;59249;59.736;30.568;2023-01-10T00:37:18;-7.91;71.09
71128;SHT30;59249;59.736;30.568;2023-01-10T00:39:47;-7.89;71.44
71128;SHT30;59249;59.736;30.568;2023-01-10T00:42:16;-7.93;71.29
71128;SHT30;59249;59.736;30.568;2023-01-10T00:45:04;-7.87;71.32
71128;SHT30;59249;59.736;30.568;2023-01-10T00:47:33;-7.88;71.46
71128;SHT30;59249;59.736;30.568;2023-01-10T00:50:02;-7.88;71.55
71128;SHT30;59249;59.736;30.568;2023-01-10T00:52:32;-7.87;71.73
71128;SHT30;59249;59.736;30.568;2023-01-10T00:55:00;-7.90;71.87
71128;SHT30;59249;59.736;30.568;2023-01-10T00:57:29;-7.82;71.71
71128;SHT30;59249;59.736;30.568;2023-01-10T00:59:58;-7.91;71.78
71128;SHT30;59249;59.736;30.568;2023-01-10T01:02:29;-7.86;71.89
71128;SHT30;59249;59.736;30.568;2023-01-10T01:04:57;-7.84;71.99
71128;SHT30;59249;59.736;30.568;2023-01-10T01:07:26;-7.83;72.06
71128;SHT30;59249;59.736;30.568;2023-01-10T01:09:54;-7.79;72.18
71128;SHT30;59249;59.736;30.568;2023-01-10T01:12:41;-7.82;72.01
71128;SHT30;59249;59.736;30.568;2023-01-10T01:15:09;-7.86;72.18
71128;SHT30;59249;59.736;30.568;2023-01-10T01:17:39;-7.84;72.09
71128;SHT30;59249;59.736;30.568;2023-01-10T01:20:10;-7.84;72.46
71128;SHT30;59249;59.736;30.568;2023-01-10T01:22:39;-7.91;72.60
71128;SHT30;59249;59.736;30.568;2023-01-10T01:25:08;-7.98;72.79
71128;SHT30;59249;59.736;30.568;2023-01-10T01:27:37;-7.92;72.88
71128;SHT30;59249;59.736;30.568;2023-01-10T01:30:09;-7.91;73.18
71128;SHT30;59249;59.736;30.568;2023-01-10T01:32:39;-7.90;73.29
71128;SHT30;59249;59.736;30.568;2023-01-10T01:35:13;-7.95;73.59
71128;SHT30;59249;59.736;30.568;2023-01-10T01:37:43;-7.94;73.85
71128;SHT30;59249;59.736;30.568;2023-01-10T01:40:13;-7.95;74.44
71128;SHT30;59249;59.736;30.568;2023-01-10T01:42:43;-7.99;75.01
71128;SHT30;59249;59.736;30.568;2023-01-10T01:45:38;-8.02;74.99
71128;SHT30;59249;59.736;30.568;2023-01-10T01:48:23;-8.01;75.04
71128;SHT30;59249;59.736;30.568;2023-01-10T01:50:58;-8.02;75.04
71128;SHT30;59249;59.736;30.568;2023-01-10T01:53:38;-8.09;74.78
71128;SHT30;59249;59.736;30.568;2023-01-10T01:56:14;-8.08;74.54
71128;SHT30;59249;59.736;30.568;2023-01-10T01:58:54;-8.11;74.42
71128;SHT30;59249;59.736;30.568;2023-01-10T02:01:27;-8.14;74.14
71128;SHT30;59249;59.736;30.568;2023-01-10T02:04:05;-8.11;74.08
71128;SHT30;59249;59.736;30.568;2023-01-10T02:06:35;-8.11;73.86
71128;SHT30;59249;59.736;30.568;2023-01-10T02:09:16;-8.13;73.65
71128;SHT30;59249;59.736;30.568;2023-01-10T02:11:46;-8.09;73.79
71128;SHT30;59249;59.736;30.568;2023-01-10T02:14:16;-8.11;74.00
71128;SHT30;59249;59.736;30.568;2023-01-10T02:16:45;-8.07;74.10
71128;SHT30;59249;59.736;30.568;2023-01-10T02:19:24;-8.08;74.04
71128;SHT30;59249;59.736;30.568;2023-01-10T02:25:57;-8.13;74.49
71128;SHT30;59249;59.736;30.568;2023-01-10T02:32:17;-8.13;74.30
71128;SHT30;59249;59.736;30.568;2023-01-10T02:35:29;-8.14;74.17
71128;SHT30;59249;59.736;30.568;2023-01-10T02:38:10;-8.12;74.26
71128;SHT30;59249;59.736;30.568;2023-01-10T02:40:50;-8.10;74.34
71128;SHT30;59249;59.736;30.568;2023-01-10T02:43:25;-8.10;74.22
71128;SHT30;59249;59.736;30.568;2023-01-10T02:46:01;-8.08;74.25
71128;SHT30;59249;59.736;30.568;2023-01-10T02:48:33;-8.11;74.25
71128;SHT30;59249;59.736;30.568;2023-01-10T02:51:08;-8.08;74.27
71128;SHT30;59249;59.736;30.568;2023-01-10T02:53:46;-8.07;74.13
71128;SHT30;59249;59.736;30.568;2023-01-10T02:56:34;-8.07;74.22
71128;SHT30;59249;59.736;30.568;2023-01-10T02:59:40;-8.12;74.48
71128;SHT30;59249;59.736;30.568;2023-01-10T03:02:21;-8.08;74.15
71128;SHT30;59249;59.736;30.568;2023-01-10T03:05:07;-8.19;74.21
71128;SHT30;59249;59.736;30.568;2023-01-10T03:07:46;-8.15;74.33
71128;SHT30;59249;59.736;30.568;2023-01-10T03:10:28;-8.02;74.16
71128;SHT30;59249;59.736;30.568;2023-01-10T03:13:05;-8.11;74.13
71128;SHT30;59249;59.736;30.568;2023-01-10T03:15:39;-8.00;74.25
71128;SHT30;59249;59.736;30.568;2023-01-10T03:18:15;-8.00;73.94
71128;SHT30;59249;59.736;30.568;2023-01-10T03:20:49;-7.98;74.00
71128;SHT30;59249;59.736;30.568;2023-01-10T03:23:22;-8.00;74.00
71128;SHT30;59249;59.736;30.568;2023-01-10T03:25:54;-8.00;73.88
71128;SHT30;59249;59.736;30.568;2023-01-10T03:28:28;-7.98;74.06
71128;SHT30;59249;59.736;30.568;2023-01-10T03:31:02;-8.07;74.07
71128;SHT30;59249;59.736;30.568;2023-01-10T03:33:33;-8.02;74.19
71128;SHT30;59249;59.736;30.568;2023-01-10T03:36:15;-8.03;74.09
71128;SHT30;59249;59.736;30.568;2023-01-10T03:38:53;-8.09;74.18
71128;SHT30;59249;59.736;30.568;2023-01-10T03:41:35;-8.09;74.00
71128;SHT30;59249;59.736;30.568;2023-01-10T03:44:17;-8.07;74.30
71128;SHT30;59249;59.736;30.568;2023-01-10T03:47:07;-8.03;74.24
71128;SHT30;59249;59.736;30.568;2023-01-10T03:49:39;-8.04;74.18
71128;SHT30;59249;59.736;30.568;2023-01-10T03:52:14;-8.07;74.02
71128;SHT30;59249;59.736;30.568;2023-01-10T03:54:44;-8.02;74.14
71128;SHT30;59249;59.736;30.568;2023-01-10T03:57:16;-7.92;73.98
71128;SHT30;59249;59.736;30.568;2023-01-10T03:59:46;-8.01;73.97
71128;SHT30;59249;59.736;30.568;2023-01-10T04:02:15;-8.04;74.17
71128;SHT30;59249;59.736;30.568;2023-01-10T04:04:44;-8.00;74.31
71128;SHT30;59249;59.736;30.568;2023-01-10T04:07:14;-8.07;74.39
71128;SHT30;59249;59.736;30.568;2023-01-10T04:09:42;-8.00;74.17
71128;SHT30;59249;59.736;30.568;2023-01-10T04:12:11;-8.09;74.18
71128;SHT30;59249;59.736;30.568;2023-01-10T04:14:40;-8.10;74.46
71128;SHT30;59249;59.736;30.568;2023-01-10T04:17:09;-8.05;74.57
71128;SHT30;59249;59.736;30.568;2023-01-10T04:19:38;-8.04;74.33
71128;SHT30;59249;59.736;30.568;2023-01-10T04:22:07;-8.10;74.29
71128;SHT30;59249;59.736;30.568;2023-01-10T04:24:37;-8.10;74.49
71128;SHT30;59249;59.736;30.568;2023-01-10T04:27:06;-8.05;74.49
71128;SHT30;59249;59.736;30.568;2023-01-10T04:29:35;-8.04;74.48
71128;SHT30;59249;59.736;30.568;2023-01-10T04:32:04;-8.06;74.46
71128;SHT30;59249;59.736;30.568;2023-01-10T04:34:32;-8.04;74.63
71128;SHT30;59249;59.736;30.568;2023-01-10T04:37:01;-8.07;74.62
71128;SHT30;59249;59.736;30.568;2023-01-10T04:39:30;-8.06;74.35
71128;SHT30;59249;59.736;30.568;2023-01-10T04:42:00;-8.09;74.47
71128;SHT30;59249;59.736;30.568;2023-01-10T04:44:29;-8.10;74.44
71128;SHT30;59249;59.736;30.568;2023-01-10T04:46:58;-8.02;74.58
71128;SHT30;59249;59.736;30.568;2023-01-10T04:49:26;-7.96;74.62
71128;SHT30;59249;59.736;30.568;2023-01-10T04:51:55;-7.96;74.35
71128;SHT30;59249;59.736;30.568;2023-01-10T04:54:24;-8.05;74.38
71128;SHT30;59249;59.736;30.568;2023-01-10T04:56:52;-8.00;74.64
71128;SHT30;59249;59.736;30.568;2023-01-10T04:59:22;-8.01;74.72
71128;SHT30;59249;59.736;30.568;2023-01-10T05:01:51;-7.98;74.46
71128;SHT30;59249;59.736;30.568;2023-01-10T05:04:20;-7.95;74.65
71128;SHT30;59249;59.736;30.568;2023-01-10T05:06:48;-8.07;74.58
71128;SHT30;59249;59.736;30.568;2023-01-10T05:09:17;-7.98;74.71
71128;SHT30;59249;59.736;30.568;2023-01-10T05:11:46;-7.91;74.76
71128;SHT30;59249;59.736;30.568;2023-01-10T05:14:14;-7.91;74.62
71128;SHT30;59249;59.736;30.568;2023-01-10T05:16:44;-7.94;74.65
71128;SHT30;59249;59.736;30.568;2023-01-10T05:19:13;-7.97;74.61
71128;SHT30;59249;59.736;30.568;2023-01-10T05:21:42;-7.97;74.92
71128;SHT30;59249;59.736;30.568;2023-01-10T05:24:11;-7.93;74.83
71128;SHT30;59249;59.736;30.568;2023-01-10T05:26:40;-7.84;74.91
71128;SHT30;59249;59.736;30.568;2023-01-10T05:29:09;-7.88;74.76
71128;SHT30;59249;59.736;30.568;2023-01-10T05:31:38;-7.90;75.09
71128;SHT30;59249;59.736;30.568;2023-01-10T05:34:11;-7.89;75.19
71128;SHT30;59249;59.736;30.568;2023-01-10T05:36:40;-7.87;75.25
71128;SHT30;59249;59.736;30.568;2023-01-10T05:39:08;-7.82;75.12
71128;SHT30;59249;59.736;30.568;2023-01-10T05:41:37;-7.82;75.04
71128;SHT30;59249;59.736;30.568;2023-01-10T05:44:06;-7.82;74.89
71128;SHT30;59249;59.736;30.568;2023-01-10T05:46:35;-7.79;74.92
71128;SHT30;59249;59.736;30.568;2023-01-10T05:49:05;-7.77;74.76
71128;SHT30;59249;59.736;30.568;2023-01-10T05:51:35;-7.76;75.03
71128;SHT30;59249;59.736;30.568;2023-01-10T05:54:04;-7.74;74.94
71128;SHT30;59249;59.736;30.568;2023-01-10T05:56:33;-7.74;74.84
71128;SHT30;59249;59.736;30.568;2023-01-10T05:59:11;-7.75;74.83
71128;SHT30;59249;59.736;30.568;2023-01-10T06:01:53;-7.63;74.78
71128;SHT30;59249;59.736;30.568;2023-01-10T06:04:22;-7.64;74.69
71128;SHT30;59249;59.736;30.568;2023-01-10T06:06:54;-7.70;74.83
71128;SHT30;59249;59.736;30.568;2023-01-10T06:09:22;-7.73;74.88
71128;SHT30;59249;59.736;30.568;2023-01-10T06:11:51;-7.67;75.14
71128;SHT30;59249;59.736;30.568;2023-01-10T06:14:20;-7.62;75.11
71128;SHT30;59249;59.736;30.568;2023-01-10T06:16:48;-7.64;75.04
71128;SHT30;59249;59.736;30.568;2023-01-10T06:19:17;-7.61;75.32
71128;SHT30;59249;59.736;30.568;2023-01-10T06:21:45;-7.67;75.53
71128;SHT30;59249;59.736;30.568;2023-01-10T06:24:16;-7.73;75.85
71128;SHT30;59249;59.736;30.568;2023-01-10T06:26:44;-7.70;75.86
71128;SHT30;59249;59.736;30.568;2023-01-10T06:29:13;-7.64;75.99
71128;SHT30;59249;59.736;30.568;2023-01-10T06:31:42;-7.68;76.25
71128;SHT30;59249;59.736;30.568;2023-01-10T06:34:11;-7.74;76.20
71128;SHT30;59249;59.736;30.568;2023-01-10T06:36:39;-7.70;76.23
71128;SHT30;59249;59.736;30.568;2023-01-10T06:39:08;-7.65;76.16
71128;SHT30;59249;59.736;30.568;2023-01-10T06:41:39;-7.64;76.15
71128;SHT30;59249;59.736;30.568;2023-01-10T06:44:09;-7.73;75.97
71128;SHT30;59249;59.736;30.568;2023-01-10T06:46:37;-7.76;76.09
71128;SHT30;59249;59.736;30.568;2023-01-10T06:49:06;-7.72;76.17
71128;SHT30;59249;59.736;30.568;2023-01-10T06:51:35;-7.69;75.85
71128;SHT30;59249;59.736;30.568;2023-01-10T06:54:03;-7.72;76.13
71128;SHT30;59249;59.736;30.568;2023-01-10T06:56:32;-7.70;76.22
71128;SHT30;59249;59.736;30.568;2023-01-10T06:59:02;-7.70;76.12
71128;SHT30;59249;59.736;30.568;2023-01-10T07:01:34;-7.74;76.40
71128;SHT30;59249;59.736;30.568;2023-01-10T07:04:05;-7.69;76.60
71128;SHT30;59249;59.736;30.568;2023-01-10T07:06:36;-7.66;76.59
71128;SHT30;59249;59.736;30.568;2023-01-10T07:09:05;-7.76;77.02
71128;SHT30;59249;59.736;30.568;2023-01-10T07:11:34;-7.72;77.04
71128;SHT30;59249;59.736;30.568;2023-01-10T07:14:04;-7.76;77.27
71128;SHT30;59249;59.736;30.568;2023-01-10T07:16:33;-7.77;77.49
71128;SHT30;59249;59.736;30.568;2023-01-10T07:19:02;-7.71;77.66
71128;SHT30;59249;59.736;30.568;2023-01-10T07:31:16;-7.60;77.80
71128;SHT30;59249;59.736;30.568;2023-01-10T07:33:46;-7.63;78.27
71128;SHT30;59249;59.736;30.568;2023-01-10T07:36:15;-7.60;78.34
71128;SHT30;59249;59.736;30.568;2023-01-10T07:38:43;-7.58;78.30
71128;SHT30;59249;59.736;30.568;2023-01-10T07:41:12;-7.54;78.48
71128;SHT30;59249;59.736;30.568;2023-01-10T07:43:41;-7.60;78.08
71128;SHT30;59249;59.736;30.568;2023-01-10T07:46:10;-7.63;78.23
71128;SHT30;59249;59.736;30.568;2023-01-10T07:48:40;-7.53;78.20
71128;SHT30;59249;59.736;30.568;2023-01-10T07:51:09;-7.44;78.10
71128;SHT30;59249;59.736;30.568;2023-01-10T07:53:39;-7.38;77.77
71128;SHT30;59249;59.736;30.568;2023-01-10T07:56:08;-7.34;77.74
71128;SHT30;59249;59.736;30.568;2023-01-10T07:58:36;-7.34;77.45
71128;SHT30;59249;59.736;30.568;2023-01-10T08:01:05;-7.27;77.27
71128;SHT30;59249;59.736;30.568;2023-01-10T08:03:34;-7.34;77.06
71128;SHT30;59249;59.736;30.568;2023-01-10T08:06:08;-7.38;76.73
71128;SHT30;59249;59.736;30.568;2023-01-10T08:08:42;-7.31;76.81
71128;SHT30;59249;59.736;30.568;2023-01-10T08:11:11;-7.26;76.58
71128;SHT30;59249;59.736;30.568;2023-01-10T08:13:40;-7.26;76.46
71128;SHT30;59249;59.736;30.568;2023-01-10T08:16:09;-7.26;76.73
71128;SHT30;59249;59.736;30.568;2023-01-10T08:18:38;-7.22;76.85
71128;SHT30;59249;59.736;30.568;2023-01-10T08:21:10;-7.22;76.86
71128;SHT30;59249;59.736;30.568;2023-01-10T08:23:39;-7.16;76.69
71128;SHT30;59249;59.736;30.568;2023-01-10T08:26:08;-7.05;76.71
71128;SHT30;59249;59.736;30.568;2023-01-10T08:28:36;-7.03;76.46
71128;SHT30;59249;59.736;30.568;2023-01-10T08:31:07;-7.02;76.49
71128;SHT30;59249;59.736;30.568;2023-01-10T08:33:37;-7.04;76.51
71128;SHT30;59249;59.736;30.568;2023-01-10T08:36:15;-7.04;76.67
71128;SHT30;59249;59.736;30.568;2023-01-10T08:38:45;-6.99;76.62
71128;SHT30;59249;59.736;30.568;2023-01-10T08:41:14;-7.00;76.74
71128;SHT30;59249;59.736;30.568;2023-01-10T08:43:42;-7.00;76.92
71128;SHT30;59249;59.736;30.568;2023-01-10T08:46:11;-6.93;77.25
71128;SHT30;59249;59.736;30.568;2023-01-10T08:48:40;-6.89;77.47
71128;SHT30;59249;59.736;30.568;2023-01-10T08:51:09;-6.85;77.41
71128;SHT30;59249;59.736;30.568;2023-01-10T08:53:39;-6.83;77.24
71128;SHT30;59249;59.736;30.568;2023-01-10T08:56:09;-6.77;77.33
71128;SHT30;59249;59.736;30.568;2023-01-10T08:58:38;-6.71;77.44
71128;SHT30;59249;59.736;30.568;2023-01-10T09:01:08;-6.76;77.33
71128;SHT30;59249;59.736;30.568;2023-01-10T09:03:38;-6.79;77.79
71128;SHT30;59249;59.736;30.568;2023-01-10T09:06:07;-6.80;77.67
71128;SHT30;59249;59.736;30.568;2023-01-10T09:08:38;-6.78;77.54
71128;SHT30;59249;59.736;30.568;2023-01-10T09:11:07;-6.75;77.34
71128;SHT30;59249;59.736;30.568;2023-01-10T09:13:36;-6.71;77.43
71128;SHT30;59249;59.736;30.568;2023-01-10T09:16:06;-6.60;77.26
71128;SHT30;59249;59.736;30.568;2023-01-10T09:18:36;-6.63;77.19
71128;SHT30;59249;59.736;30.568;2023-01-10T09:21:05;-6.65;77.41
71128;SHT30;59249;59.736;30.568;2023-01-10T09:23:34;-6.53;77.49
71128;SHT30;59249;59.736;30.568;2023-01-10T09:26:05;-6.56;77.56
71128;SHT30;59249;59.736;30.568;2023-01-10T09:28:33;-6.54;77.35
71128;SHT30;59249;59.736;30.568;2023-01-10T09:31:02;-6.50;77.43
71128;SHT30;59249;59.736;30.568;2023-01-10T09:33:31;-6.52;77.55
71128;SHT30;59249;59.736;30.568;2023-01-10T09:36:13;-6.43;77.43
71128;SHT30;59249;59.736;30.568;2023-01-10T09:38:42;-6.39;77.32
71128;SHT30;59249;59.736;30.568;2023-01-10T09:41:37;-6.33;77.33
71128;SHT30;59249;59.736;30.568;2023-01-10T09:44:19;-6.28;76.90
71128;SHT30;59249;59.736;30.568;2023-01-10T09:47:01;-6.24;76.92
71128;SHT30;59249;59.736;30.568;2023-01-10T09:49:59;-6.30;76.95
71128;SHT30;59249;59.736;30.568;2023-01-10T09:52:36;-6.25;76.90
71128;SHT30;59249;59.736;30.568;2023-01-10T09:55:19;-6.28;77.05
71128;SHT30;59249;59.736;30.568;2023-01-10T09:57:52;-6.25;77.09
71128;SHT30;59249;59.736;30.568;2023-01-10T10:00:30;-6.18;77.11
71128;SHT30;59249;59.736;30.568;2023-01-10T10:03:04;-6.09;77.08
71128;SHT30;59249;59.736;30.568;2023-01-10T10:05:38;-6.06;77.03
71128;SHT30;59249;59.736;30.568;2023-01-10T10:08:16;-6.00;77.16
71128;SHT30;59249;59.736;30.568;2023-01-10T10:11:01;-6.03;77.25
71128;SHT30;59249;59.736;30.568;2023-01-10T10:13:46;-5.97;77.60
71128;SHT30;59249;59.736;30.568;2023-01-10T10:16:31;-5.93;77.64
71128;SHT30;59249;59.736;30.568;2023-01-10T10:19:29;-5.96;77.29
71128;SHT30;59249;59.736;30.568;2023-01-10T10:22:07;-5.90;77.54
71128;SHT30;59249;59.736;30.568;2023-01-10T10:24:58;-5.93;77.88
71128;SHT30;59249;59.736;30.568;2023-01-10T10:27:35;-5.86;78.12
71128;SHT30;59249;59.736;30.568;2023-01-10T10:30:26;-5.86;77.87
71128;SHT30;59249;59.736;30.568;2023-01-10T10:33:12;-5.81;78.05
71128;SHT30;59249;59.736;30.568;2023-01-10T10:35:52;-5.80;77.96
71128;SHT30;59249;59.736;30.568;2023-01-10T10:38:27;-5.84;78.37
71128;SHT30;59249;59.736;30.568;2023-01-10T10:40:59;-5.87;78.35
71128;SHT30;59249;59.736;30.568;2023-01-10T10:43:33;-5.75;78.50
71128;SHT30;59249;59.736;30.568;2023-01-10T10:46:08;-5.72;78.45
71128;SHT30;59249;59.736;30.568;2023-01-10T10:48:44;-5.77;78.75
71128;SHT30;59249;59.736;30.568;2023-01-10T10:51:23;-5.85;78.87
71128;SHT30;59249;59.736;30.568;2023-01-10T10:53:54;-5.81;79.10
71128;SHT30;59249;59.736;30.568;2023-01-10T10:56:25;-5.81;79.35
71128;SHT30;59249;59.736;30.568;2023-01-10T10:58:58;-5.77;79.62
71128;SHT30;59249;59.736;30.568;2023-01-10T11:01:28;-5.69;79.69
71128;SHT30;59249;59.736;30.568;2023-01-10T11:04:06;-5.53;79.32
71128;SHT30;59249;59.736;30.568;2023-01-10T11:06:37;-5.45;79.23
71128;SHT30;59249;59.736;30.568;2023-01-10T11:09:18;-5.42;79.09
71128;SHT30;59249;59.736;30.568;2023-01-10T11:11:48;-5.40;78.75
71128;SHT30;59249;59.736;30.568;2023-01-10T11:14:41;-5.39;78.85
71128;SHT30;59249;59.736;30.568;2023-01-10T11:17:22;-5.35;78.73
71128;SHT30;59249;59.736;30.568;2023-01-10T11:19:58;-5.39;78.75
71128;SHT30;59249;59.736;30.568;2023-01-10T11:22:36;-5.42;78.72
71128;SHT30;59249;59.736;30.568;2023-01-10T11:25:14;-5.31;78.75
71128;SHT30;59249;59.736;30.568;2023-01-10T11:27:48;-5.27;78.65
71128;SHT30;59249;59.736;30.568;2023-01-10T11:30:21;-5.36;78.76
71128;SHT30;59249;59.736;30.568;2023-01-10T11:32:55;-5.32;78.70
71128;SHT30;59249;59.736;30.568;2023-01-10T11:35:29;-5.27;78.98
71128;SHT30;59249;59.736;30.568;2023-01-10T11:38:02;-5.27;79.11
71128;SHT30;59249;59.736;30.568;2023-01-10T11:40:33;-5.30;79.16
71128;SHT30;59249;59.736;30.568;2023-01-10T11:43:26;-5.24;79.17
71128;SHT30;59249;59.736;30.568;2023-01-10T11:45:58;-5.26;79.25
71128;SHT30;59249;59.736;30.568;2023-01-10T11:48:51;-5.24;79.34
71128;SHT30;59249;59.736;30.568;2023-01-10T11:51:39;-5.18;79.17
71128;SHT30;59249;59.736;30.568;2023-01-10T11:54:17;-5.20;79.32
71128;SHT30;59249;59.736;30.568;2023-01-10T11:56:55;-5.18;79.20
71128;SHT30;59249;59.736;30.568;2023-01-10T11:59:26;-5.06;79.29
71128;SHT30;59249;59.736;30.568;2023-01-10T12:02:00;-5.04;79.17
71128;SHT30;59249;59.736;30.568;2023-01-10T12:04:39;-5.08;79.51
71128;SHT30;59249;59.736;30.568;2023-01-10T12:07:10;-5.01;79.57
71128;SHT30;59249;59.736;30.568;2023-01-10T12:09:42;-5.04;79.66
71128;SHT30;59249;59.736;30.568;2023-01-10T12:12:18;-4.89;79.64
71128;SHT30;59249;59.736;30.568;2023-01-10T12:14:48;-4.85;79.59
71128;SHT30;59249;59.736;30.568;2023-01-10T12:17:22;-4.92;79.81
71128;SHT30;59249;59.736;30.568;2023-01-10T12:19:56;-4.79;80.00
71128;SHT30;59249;59.736;30.568;2023-01-10T12:22:31;-4.72;79.58
71128;SHT30;59249;59.736;30.568;2023-01-10T12:25:08;-4.69;79.68
71128;SHT30;59249;59.736;30.568;2023-01-10T12:27:42;-4.84;79.82
71128;SHT30;59249;59.736;30.568;2023-01-10T12:30:18;-4.71;80.04
71128;SHT30;59249;59.736;30.568;2023-01-10T12:32:54;-4.70;80.08
71128;SHT30;59249;59.736;30.568;2023-01-10T12:35:38;-4.69;80.11
71128;SHT30;59249;59.736;30.568;2023-01-10T12:38:21;-4.72;80.33
71128;SHT30;59249;59.736;30.568;2023-01-10T12:41:09;-4.63;80.41
71128;SHT30;59249;59.736;30.568;2023-01-10T12:44:04;-4.60;80.47
71128;SHT30;59249;59.736;30.568;2023-01-10T12:46:44;-4.57;80.49
71128;SHT30;59249;59.736;30.568;2023-01-10T12:49:39;-4.54;80.68
71128;SHT30;59249;59.736;30.568;2023-01-10T12:52:19;-4.42;80.66
71128;SHT30;59249;59.736;30.568;2023-01-10T12:54:50;-4.44;80.83
71128;SHT30;59249;59.736;30.568;2023-01-10T12:57:29;-4.46;80.79
71128;SHT30;59249;59.736;30.568;2023-01-10T13:00:04;-4.50;80.90
71128;SHT30;59249;59.736;30.568;2023-01-10T13:02:40;-4.48;81.13
71128;SHT30;59249;59.736;30.568;2023-01-10T13:05:18;-4.46;81.17
71128;SHT30;59249;59.736;30.568;2023-01-10T13:07:51;-4.45;81.37
71128;SHT30;59249;59.736;30.568;2023-01-10T13:10:23;-4.42;81.50
71128;SHT30;59249;59.736;30.568;2023-01-10T13:12:58;-4.38;81.71
71128;SHT30;59249;59.736;30.568;2023-01-10T13:15:33;-4.34;81.54
71128;SHT30;59249;59.736;30.568;2023-01-10T13:18:16;-4.37;81.61
71128;SHT30;59249;59.736;30.568;2023-01-10T13:20:45;-4.35;81.89
71128;SHT30;59249;59.736;30.568;2023-01-10T13:23:27;-4.29;81.93
71128;SHT30;59249;59.736;30.568;2023-01-10T13:26:04;-4.24;81.81
71128;SHT30;59249;59.736;30.568;2023-01-10T13:28:38;-4.20;81.82
71128;SHT30;59249;59.736;30.568;2023-01-10T13:31:22;-4.13;81.83
71128;SHT30;59249;59.736;30.568;2023-01-10T13:33:54;-4.12;81.84
71128;SHT30;59249;59.736;30.568;2023-01-10T13:36:28;-4.13;81.87
71128;SHT30;59249;59.736;30.568;2023-01-10T13:39:03;-4.04;81.91
71128;SHT30;59249;59.736;30.568;2023-01-10T13:42:29;-4.06;82.09
71128;SHT30;59249;59.736;30.568;2023-01-10T13:45:24;-4.03;82.19
71128;SHT30;59249;59.736;30.568;2023-01-10T13:48:23;-4.00;82.31
71128;SHT30;59249;59.736;30.568;2023-01-10T13:51:18;-4.02;82.56
71128;SHT30;59249;59.736;30.568;2023-01-10T13:53:56;-3.98;82.91
71128;SHT30;59249;59.736;30.568;2023-01-10T13:56:38;-3.96;82.90
71128;SHT30;59249;59.736;30.568;2023-01-10T13:59:13;-3.86;82.97
71128;SHT30;59249;59.736;30.568;2023-01-10T14:02:02;-3.88;83.10
71128;SHT30;59249;59.736;30.568;2023-01-10T14:04:51;-3.86;83.12
71128;SHT30;59249;59.736;30.568;2023-01-10T14:07:26;-3.90;83.23
71128;SHT30;59249;59.736;30.568;2023-01-10T14:10:02;-3.89;83.36
71128;SHT30;59249;59.736;30.568;2023-01-10T14:12:38;-3.76;83.33
71128;SHT30;59249;59.736;30.568;2023-01-10T14:15:23;-3.78;83.23
71128;SHT30;59249;59.736;30.568;2023-01-10T14:17:58;-3.78;83.37
71128;SHT30;59249;59.736;30.568;2023-01-10T14:20:31;-3.76;83.54
71128;SHT30;59249;59.736;30.568;2023-01-10T14:23:05;-3.74;83.47
71128;SHT30;59249;59.736;30.568;2023-01-10T14:25:37;-3.71;83.37
71128;SHT30;59249;59.736;30.568;2023-01-10T14:28:20;-3.64;83.34
71128;SHT30;59249;59.736;30.568;2023-01-10T14:31:01;-3.60;83.40
71128;SHT30;59249;59.736;30.568;2023-01-10T14:33:32;-3.58;83.39
71128;SHT30;59249;59.736;30.568;2023-01-10T14:36:09;-3.49;83.29
71128;SHT30;59249;59.736;30.568;2023-01-10T14:38:44;-3.46;83.22
71128;SHT30;59249;59.736;30.568;2023-01-10T14:41:18;-3.46;83.17
71128;SHT30;59249;59.736;30.568;2023-01-10T14:43:57;-3.48;83.46
71128;SHT30;59249;59.736;30.568;2023-01-10T14:46:36;-3.48;83.41
71128;SHT30;59249;59.736;30.568;2023-01-10T14:49:21;-3.43;83.43
71128;SHT30;59249;59.736;30.568;2023-01-10T14:51:51;-3.34;83.51
71128;SHT30;59249;59.736;30.568;2023-01-10T14:54:22;-3.30;83.40
71128;SHT30;59249;59.736;30.568;2023-01-10T14:56:52;-3.30;83.51
71128;SHT30;59249;59.736;30.568;2023-01-10T14:59:28;-3.23;83.62
71128;SHT30;59249;59.736;30.568;2023-01-10T15:01:59;-3.21;83.61
71128;SHT30;59249;59.736;30.568;2023-01-10T15:04:31;-3.15;83.56
71128;SHT30;59249;59.736;30.568;2023-01-10T15:07:09;-3.20;83.68
71128;SHT30;59249;59.736;30.568;2023-01-10T15:09:38;-3.17;83.63
71128;SHT30;59249;59.736;30.568;2023-01-10T15:12:16;-3.17;83.66
71128;SHT30;59249;59.736;30.568;2023-01-10T15:14:48;-3.11;83.72
71128;SHT30;59249;59.736;30.568;2023-01-10T15:17:20;-3.11;83.60
71128;SHT30;59249;59.736;30.568;2023-01-10T15:19:51;-3.09;83.74
71128;SHT30;59249;59.736;30.568;2023-01-10T15:22:28;-3.03;83.50
71128;SHT30;59249;59.736;30.568;2023-01-10T15:25:00;-3.01;83.54
71128;SHT30;59249;59.736;30.568;2023-01-10T15:27:31;-3.04;83.68
71128;SHT30;59249;59.736;30.568;2023-01-10T15:30:06;-2.92;83.64
71128;SHT30;59249;59.736;30.568;2023-01-10T15:32:38;-2.92;83.61
71128;SHT30;59249;59.736;30.568;2023-01-10T15:35:11;-2.99;83.79
71128;SHT30;59249;59.736;30.568;2023-01-10T15:37:51;-2.95;83.89
71128;SHT30;59249;59.736;30.568;2023-01-10T15:40:28;-2.85;83.83
71128;SHT30;59249;59.736;30.568;2023-01-10T15:43:19;-2.89;84.02
71128;SHT30;59249;59.736;30.568;2023-01-10T15:45:52;-2.91;84.03
71128;SHT30;59249;59.736;30.568;2023-01-10T15:48:30;-2.86;84.18
71128;SHT30;59249;59.736;30.568;2023-01-10T15:51:02;-2.88;84.24
71128;SHT30;59249;59.736;30.568;2023-01-10T15:53:56;-2.80;84.19
71128;SHT30;59249;59.736;30.568;2023-01-10T15:56:33;-2.73;84.21
71128;SHT30;59249;59.736;30.568;2023-01-10T15:59:19;-2.62;84.24
71128;SHT30;59249;59.736;30.568;2023-01-10T16:01:56;-2.64;84.04
71128;SHT30;59249;59.736;30.568;2023-01-10T16:04:26;-2.50;83.99
71128;SHT30;59249;59.736;30.568;2023-01-10T16:07:11;-2.52;83.97
71128;SHT30;59249;59.736;30.568;2023-01-10T16:09:50;-2.46;83.98
71128;SHT30;59249;59.736;30.568;2023-01-10T16:12:32;-2.37;84.10
71128;SHT30;59249;59.736;30.568;2023-01-10T16:15:21;-2.41;84.06
71128;SHT30;59249;59.736;30.568;2023-01-10T16:17:52;-2.42;83.96